createdAt,value
2019-06-07T00:00:38.016Z,9.77
2019-06-07T00:02:57.382Z,10.37
2019-06-07T00:05:26.519Z,10.73
2019-06-07T00:08:07.025Z,11.10
2019-06-07T00:10:36.694Z,11.00
2019-06-07T00:12:59.314Z,11.73
2019-06-07T00:15:29.345Z,13.37
2019-06-07T00:17:58.803Z,11.77
2019-06-07T00:20:27.958Z,11.77
2019-06-07T00:22:57.147Z,11.43
2019-06-07T00:25:26.336Z,12.13
2019-06-07T00:27:55.573Z,11.43
2019-06-07T00:30:51.179Z,11.20
2019-06-07T00:32:56.081Z,11.00
2019-06-07T00:35:25.229Z,10.97
2019-06-07T00:37:58.001Z,10.50
2019-06-07T00:40:31.874Z,11.73
2019-06-07T00:42:58.201Z,11.07
2019-06-07T00:45:27.337Z,10.40
2019-06-07T00:47:56.530Z,11.67
2019-06-07T00:50:25.691Z,11.20
2019-06-07T00:53:14.582Z,11.50
2019-06-07T00:55:27.718Z,12.03
2019-06-07T00:57:57.155Z,12.40
2019-06-07T01:00:26.525Z,11.57
2019-06-07T01:02:55.726Z,12.43
2019-06-07T01:05:31.159Z,12.70
2019-06-07T01:07:55.751Z,13.30
2019-06-07T01:10:51.670Z,12.03
2019-06-07T01:12:56.025Z,12.53
2019-06-07T01:15:28.845Z,11.90
2019-06-07T01:20:27.107Z,12.90
2019-06-07T01:22:56.341Z,11.97
2019-06-07T01:25:26.448Z,13.07
2019-06-07T01:27:56.152Z,12.50
2019-06-07T01:30:26.693Z,12.87
2019-06-07T01:32:56.038Z,13.53
2019-06-07T01:35:25.567Z,12.97
2019-06-07T01:37:54.902Z,12.27
2019-06-07T01:40:30.511Z,12.43
2019-06-07T01:42:55.155Z,12.23
2019-06-07T01:45:27.032Z,12.60
2019-06-07T01:47:55.432Z,13.50
2019-06-07T01:50:26.973Z,13.83
2019-06-07T01:52:55.544Z,12.57
2019-06-07T01:55:27.295Z,13.07
2019-06-07T01:57:55.672Z,14.20
2019-06-07T02:00:26.675Z,15.10
2019-06-07T02:02:55.872Z,14.27
2019-06-07T02:05:29.968Z,16.77
2019-06-07T02:07:56.038Z,17.63
2019-06-07T02:10:29.895Z,19.03
2019-06-07T02:12:56.188Z,17.40
2019-06-07T02:15:30.689Z,17.57
2019-06-07T02:17:57.762Z,17.47
2019-06-07T02:20:31.883Z,17.00
2019-06-07T02:22:58.085Z,16.80
2019-06-07T02:25:38.399Z,18.50
2019-06-07T02:28:25.948Z,18.70
2019-06-07T02:30:49.343Z,17.87
2019-06-07T02:33:02.488Z,19.70
2019-06-07T02:35:38.921Z,18.83
2019-06-07T02:38:02.536Z,18.33
2019-06-07T02:40:36.974Z,19.37
2019-06-07T02:43:03.146Z,18.63
2019-06-07T02:45:37.769Z,18.03
2019-06-07T02:48:03.441Z,18.33
2019-06-07T02:50:38.289Z,18.27
2019-06-07T02:53:04.730Z,19.30
2019-06-07T02:56:10.964Z,18.77
2019-06-07T02:58:04.841Z,17.70
2019-06-07T03:01:05.992Z,18.10
2019-06-07T03:03:16.612Z,16.90
2019-06-07T03:05:46.453Z,17.60
2019-06-07T03:08:16.474Z,18.20
2019-06-07T03:10:47.085Z,18.20
2019-06-07T03:13:18.945Z,20.03
2019-06-07T03:15:50.344Z,20.23
2019-06-07T03:18:41.211Z,19.80
2019-06-07T03:21:12.421Z,20.97
2019-06-07T03:23:43.431Z,21.70
2019-06-07T03:26:12.736Z,22.80
2019-06-07T03:28:42.114Z,22.53
2019-06-07T03:31:11.346Z,23.03
2019-06-07T03:33:45.278Z,22.83
2019-06-07T03:36:23.920Z,23.83
2019-06-07T03:38:44.331Z,24.47
2019-06-07T03:41:13.503Z,22.53
2019-06-07T03:43:42.739Z,22.37
2019-06-07T03:46:12.005Z,22.90
2019-06-07T03:48:41.592Z,24.83
2019-06-07T03:51:24.137Z,26.33
2019-06-07T03:53:41.844Z,27.33
2019-06-07T03:56:12.003Z,27.07
2019-06-07T03:58:49.814Z,28.87
2019-06-07T04:01:14.386Z,28.70
2019-06-07T04:03:50.920Z,27.73
2019-06-07T04:06:15.716Z,28.97
2019-06-07T04:08:44.915Z,27.93
2019-06-07T04:11:14.686Z,29.87
2019-06-07T04:13:43.999Z,29.13
2019-06-07T04:16:13.252Z,29.67
2019-06-07T04:18:42.705Z,31.30
2019-06-07T04:21:11.979Z,30.53
2019-06-07T04:23:45.518Z,29.53
2019-06-07T04:26:12.070Z,30.90
2019-06-07T04:29:30.438Z,30.00
2019-06-07T04:31:12.521Z,30.07
2019-06-07T04:33:43.743Z,30.00
2019-06-07T04:36:12.850Z,30.00
2019-06-07T04:38:43.025Z,30.20
2019-06-07T04:41:12.551Z,31.60
2019-06-07T04:43:42.834Z,30.47
2019-06-07T04:46:13.318Z,29.90
2019-06-07T04:48:44.002Z,29.17
2019-06-07T04:51:15.510Z,31.53
2019-06-07T04:53:44.792Z,30.30
2019-06-07T04:56:14.136Z,30.47
2019-06-07T04:58:43.967Z,28.77
2019-06-07T05:01:26.645Z,30.57
2019-06-07T05:03:44.631Z,31.47
2019-06-07T05:06:14.240Z,30.90
2019-06-07T05:08:43.947Z,30.63
2019-06-07T05:11:13.225Z,29.37
2019-06-07T05:13:43.834Z,30.23
2019-06-07T05:16:13.464Z,29.43
2019-06-07T05:18:43.384Z,31.00
2019-06-07T05:21:12.819Z,28.80
2019-06-07T05:24:05.645Z,28.63
2019-06-07T05:26:12.963Z,28.80
2019-06-07T05:28:43.033Z,29.10
2019-06-07T05:31:13.087Z,27.63
2019-06-07T05:33:43.674Z,27.63
2019-06-07T05:36:13.063Z,28.90
2019-06-07T05:38:44.723Z,26.57
2019-06-07T05:41:13.247Z,25.07
2019-06-07T05:43:51.509Z,25.87
2019-06-07T05:46:13.373Z,26.93
2019-06-07T05:48:43.931Z,26.07
2019-06-07T05:51:13.236Z,24.73
2019-06-07T05:53:45.702Z,26.43
2019-06-07T05:56:14.188Z,25.97
2019-06-07T05:58:44.733Z,23.37
2019-06-07T06:01:42.024Z,22.67
2019-06-07T06:03:48.118Z,22.80
2019-06-07T06:06:16.094Z,22.80
2019-06-07T06:08:47.942Z,22.77
2019-06-07T06:11:16.440Z,23.03
2019-06-07T06:14:05.946Z,22.57
2019-06-07T06:16:17.712Z,21.67
2019-06-07T06:18:48.832Z,21.63
2019-06-07T06:21:20.135Z,20.27
2019-06-07T06:23:52.070Z,19.00
2019-06-07T06:26:19.934Z,19.07
2019-06-07T06:28:49.901Z,17.77
2019-06-07T06:31:19.249Z,16.90
2019-06-07T06:33:49.860Z,16.23
2019-06-07T06:36:19.689Z,16.37
2019-06-07T06:38:51.303Z,16.00
2019-06-07T06:41:21.052Z,15.23
2019-06-07T06:43:52.498Z,15.10
2019-06-07T06:46:37.920Z,15.50
2019-06-07T06:48:55.133Z,14.80
2019-06-07T06:51:23.681Z,15.30
2019-06-07T06:53:53.026Z,15.43
2019-06-07T06:56:22.216Z,14.67
2019-06-07T07:01:23.514Z,13.13
2019-06-07T07:04:12.795Z,14.10
2019-06-07T07:06:26.322Z,12.77
2019-06-07T07:08:54.874Z,12.10
2019-06-07T07:11:24.075Z,12.93
2019-06-07T07:13:56.464Z,11.90
2019-06-07T07:16:24.405Z,12.70
2019-06-07T07:18:54.780Z,13.00
2019-06-07T07:21:24.307Z,12.87
2019-06-07T07:24:19.678Z,12.83
2019-06-07T07:26:24.439Z,11.33
2019-06-07T07:28:57.257Z,11.90
2019-06-07T07:31:27.564Z,12.20
2019-06-07T07:34:30.936Z,12.07
2019-06-07T07:36:39.364Z,13.37
2019-06-07T07:39:05.314Z,13.47
2019-06-07T07:41:30.764Z,14.67
2019-06-07T07:44:06.745Z,14.80
2019-06-07T07:46:30.950Z,15.68
2019-06-07T07:49:00.178Z,16.07
2019-06-07T07:51:29.349Z,16.07
2019-06-07T07:54:10.316Z,16.40
2019-06-07T07:56:30.511Z,16.82
2019-06-07T07:59:02.004Z,16.57
2019-06-07T08:01:30.957Z,16.12
2019-06-07T08:04:00.127Z,17.27
2019-06-07T08:06:29.353Z,15.45
2019-06-07T08:08:59.136Z,16.70
2019-06-07T08:11:28.376Z,15.43
2019-06-07T08:13:58.836Z,15.50
2019-06-07T08:16:28.204Z,15.97
2019-06-07T08:19:03.606Z,14.65
2019-06-07T08:21:28.882Z,15.53
2019-06-07T08:24:03.445Z,14.60
2019-06-07T08:26:29.144Z,14.35
2019-06-07T08:29:02.334Z,14.53
2019-06-07T08:31:29.384Z,13.60
2019-06-07T08:34:00.740Z,13.07
2019-06-07T08:36:41.960Z,11.57
2019-06-07T08:39:07.335Z,9.40
2019-06-07T08:41:33.483Z,8.90
2019-06-07T08:44:22.245Z,8.63
2019-06-07T08:46:33.673Z,8.23
2019-06-07T08:49:04.706Z,8.25
2019-06-07T08:51:34.108Z,7.87
2019-06-07T08:54:21.721Z,7.80
2019-06-07T08:56:36.074Z,8.25
2019-06-07T08:59:11.274Z,8.53
2019-06-07T09:01:36.467Z,8.30
2019-06-07T09:04:09.976Z,8.03
2019-06-07T09:09:08.359Z,7.93
2019-06-07T09:11:37.776Z,7.50
2019-06-07T09:14:09.195Z,6.40
2019-06-07T09:16:38.164Z,7.67
2019-06-07T09:19:10.873Z,7.75
2019-06-07T09:21:38.361Z,7.10
2019-06-07T09:24:11.476Z,7.55
2019-06-07T09:26:38.478Z,8.50
2019-06-07T09:29:11.477Z,7.87
2019-06-07T09:31:51.750Z,8.05
2019-06-07T09:34:13.934Z,7.90
2019-06-07T09:36:40.685Z,7.55
2019-06-07T09:39:12.461Z,7.55
2019-06-07T09:41:49.750Z,8.08
2019-06-07T09:44:23.933Z,7.95
2019-06-07T09:46:44.483Z,7.70
2019-06-07T09:49:28.932Z,7.90
2019-06-07T09:51:44.659Z,7.50
2019-06-07T09:55:02.296Z,8.13
2019-06-07T09:56:46.329Z,7.90
2019-06-07T09:59:15.883Z,7.15
2019-06-07T10:01:45.086Z,7.60
2019-06-07T10:04:30.360Z,8.83
2019-06-07T10:06:45.675Z,8.78
2019-06-07T10:11:45.985Z,8.73
2019-06-07T10:14:15.192Z,8.20
2019-06-07T10:16:47.120Z,7.78
2019-06-07T10:19:17.315Z,7.87
2019-06-07T10:21:46.477Z,8.58
2019-06-07T10:24:15.694Z,8.80
2019-06-07T10:26:45.025Z,9.23
2019-06-07T10:29:14.199Z,9.50
2019-06-07T10:31:43.546Z,9.05
2019-06-07T10:34:12.754Z,9.10
2019-06-07T10:36:42.066Z,8.73
2019-06-07T10:39:11.594Z,7.47
2019-06-07T10:41:41.169Z,6.92
2019-06-07T10:44:11.473Z,7.00
2019-06-07T10:46:40.924Z,7.00
2019-06-07T10:49:10.256Z,6.67
2019-06-07T10:51:39.552Z,6.20
2019-06-07T10:54:20.988Z,6.83
2019-06-07T10:56:39.991Z,6.45
2019-06-07T10:59:09.800Z,5.62
2019-06-07T11:01:40.328Z,6.20
2019-06-07T11:04:09.664Z,6.47
2019-06-07T11:06:40.393Z,5.42
2019-06-07T11:09:10.033Z,5.08
2019-06-07T11:11:39.632Z,4.80
2019-06-07T11:14:08.873Z,4.83
2019-06-07T11:16:38.086Z,5.58
2019-06-07T11:19:08.276Z,5.10
2019-06-07T11:21:37.520Z,4.70
2019-06-07T11:24:08.069Z,4.00
2019-06-07T11:26:37.269Z,4.37
2019-06-07T11:29:06.717Z,4.10
2019-06-07T11:31:35.937Z,3.98
2019-06-07T11:34:06.356Z,3.80
2019-06-07T11:36:35.939Z,4.70
2019-06-07T11:39:06.846Z,3.98
2019-06-07T11:41:36.023Z,3.83
2019-06-07T11:44:06.586Z,4.50
2019-06-07T11:46:35.944Z,4.30
2019-06-07T11:49:06.339Z,4.90
2019-06-07T11:51:35.756Z,4.10
2019-06-07T11:54:05.045Z,4.40
2019-06-07T11:56:34.273Z,4.37
2019-06-07T11:59:03.692Z,4.20
2019-06-07T12:01:32.887Z,5.03
2019-06-07T12:04:02.243Z,4.80
2019-06-07T12:06:31.482Z,4.90
2019-06-07T12:09:00.654Z,4.53
2019-06-07T12:11:29.827Z,4.60
2019-06-07T12:13:59.038Z,4.50
2019-06-07T12:16:28.264Z,4.05
2019-06-07T12:18:57.376Z,4.05
2019-06-07T12:21:26.548Z,3.90
2019-06-07T12:23:55.729Z,3.90
2019-06-07T12:26:24.992Z,4.05
2019-06-07T12:28:55.299Z,4.30
2019-06-07T12:31:24.499Z,4.40
2019-06-07T12:33:53.814Z,4.85
2019-06-07T12:36:23.139Z,4.80
2019-06-07T12:38:52.303Z,4.40
2019-06-07T12:41:22.371Z,4.03
2019-06-07T12:43:51.579Z,5.00
2019-06-07T12:46:26.370Z,3.90
2019-06-07T12:48:51.739Z,4.10
2019-06-07T12:51:21.317Z,4.62
2019-06-07T12:53:50.656Z,4.28
2019-06-07T12:56:20.111Z,4.22
2019-06-07T12:58:49.389Z,4.30
2019-06-07T13:01:20.913Z,4.20
2019-06-07T13:03:50.707Z,4.10
2019-06-07T13:06:19.887Z,3.83
2019-06-07T13:08:49.120Z,4.00
2019-06-07T13:11:24.586Z,3.90
2019-06-07T13:13:49.429Z,3.90
2019-06-07T13:16:20.021Z,3.73
2019-06-07T13:18:49.251Z,4.00
2019-06-07T13:21:18.488Z,4.23
2019-06-07T13:23:47.696Z,4.07
2019-06-07T13:26:18.301Z,3.80
2019-06-07T16:17:20.399Z,2.70
2019-06-07T16:19:49.599Z,2.85
2019-06-07T16:22:18.867Z,2.70
2019-06-07T16:24:48.104Z,3.00
2019-06-07T16:27:17.529Z,3.00
2019-06-07T16:29:46.738Z,2.80
2019-06-07T16:32:15.932Z,2.95
2019-06-07T16:34:46.037Z,2.85
2019-06-07T16:37:15.446Z,2.72
2019-06-07T16:39:44.810Z,2.90
2019-06-07T16:42:14.026Z,3.00
2019-06-07T16:44:44.714Z,2.80
2019-06-07T16:47:13.925Z,3.05
2019-06-07T16:49:43.082Z,2.90
2019-06-07T16:52:12.320Z,2.62
2019-06-07T16:54:41.564Z,2.80
2019-06-07T16:57:10.740Z,2.70
2019-06-07T16:59:40.970Z,2.90
2019-06-07T17:02:10.171Z,3.00
2019-06-07T17:04:39.486Z,2.80
2019-06-07T17:07:08.617Z,2.53
2019-06-07T17:09:38.134Z,2.77
2019-06-07T17:12:07.390Z,2.93
2019-06-07T17:14:36.576Z,3.50
2019-06-07T17:17:05.753Z,3.40
2019-06-07T17:19:34.967Z,3.05
2019-06-07T17:22:04.175Z,3.45
2019-06-07T17:24:33.402Z,3.10
2019-06-07T17:27:04.377Z,3.40
2019-06-07T17:29:34.840Z,3.55
2019-06-07T17:32:04.014Z,3.80
2019-06-07T17:34:33.284Z,3.52
2019-06-07T17:37:02.531Z,3.37
2019-06-07T17:39:31.748Z,3.40
2019-06-07T17:42:02.635Z,3.20
2019-06-07T17:44:32.106Z,3.10
2019-06-07T17:47:03.353Z,3.35
2019-06-07T17:49:32.573Z,3.37
2019-06-07T17:52:02.286Z,3.70
2019-06-07T17:54:31.652Z,3.83
2019-06-07T17:57:00.893Z,4.10
2019-06-07T17:59:30.116Z,4.40
2019-06-07T18:02:14.218Z,3.90
2019-06-07T18:04:30.653Z,4.00
2019-06-07T18:06:59.830Z,4.20
2019-06-07T18:09:29.612Z,4.00
2019-06-07T18:12:00.035Z,4.00
2019-06-07T18:14:29.559Z,4.08
2019-06-07T18:16:58.762Z,4.10
2019-06-07T18:19:28.012Z,3.80
2019-06-07T18:21:59.125Z,3.80
2019-06-07T18:24:28.367Z,3.83
2019-06-07T18:26:58.901Z,3.83
2019-06-07T18:29:28.325Z,3.60
2019-06-07T18:32:00.208Z,3.92
2019-06-07T18:34:28.600Z,3.57
2019-06-07T18:36:57.809Z,3.35
2019-06-07T18:39:27.062Z,3.17
2019-06-07T18:41:59.462Z,3.20
2019-06-07T18:44:28.866Z,2.87
2019-06-07T18:46:58.649Z,2.70
2019-06-07T18:49:28.247Z,2.35
2019-06-07T18:52:17.235Z,2.10
2019-06-07T18:54:46.881Z,1.90
2019-06-07T18:57:16.147Z,1.72
2019-06-07T18:59:45.435Z,1.80
2019-06-07T19:02:14.544Z,1.55
2019-06-07T19:04:43.877Z,1.42
2019-06-07T19:07:13.642Z,1.45
2019-06-07T19:09:44.482Z,1.50
2019-06-07T19:12:16.824Z,1.50
2019-06-07T19:14:49.227Z,1.40
2019-06-07T19:17:18.968Z,1.55
2019-06-07T19:19:49.745Z,1.57
2019-06-07T19:22:19.303Z,1.60
2019-06-07T19:24:49.987Z,1.60
2019-06-07T19:27:19.614Z,1.52
2019-06-07T19:29:49.027Z,1.62
2019-06-07T19:32:18.346Z,1.42
2019-06-07T19:34:48.263Z,1.50
2019-06-07T19:37:18.288Z,1.50
2019-06-07T19:39:47.833Z,1.50
2019-06-07T19:42:17.217Z,1.55
2019-06-07T19:44:54.265Z,1.40
2019-06-07T19:47:17.994Z,1.60
2019-06-07T19:49:48.936Z,1.60
2019-06-07T19:52:18.369Z,1.40
2019-06-07T19:54:47.887Z,1.20
2019-06-07T19:57:17.373Z,1.30
2019-06-07T19:59:46.672Z,1.30
2019-06-07T20:02:16.490Z,1.40
2019-06-07T20:04:46.072Z,1.37
2019-06-07T20:07:15.395Z,1.52
2019-06-07T20:09:46.791Z,1.45
2019-06-07T20:12:16.516Z,1.30
2019-06-07T20:14:45.885Z,1.40
2019-06-07T20:17:15.193Z,1.47
2019-06-07T20:19:45.570Z,1.30
2019-06-07T20:22:14.830Z,1.40
2019-06-07T20:24:46.029Z,1.30
2019-06-07T20:27:16.709Z,1.40
2019-06-07T20:29:45.912Z,1.30
2019-06-07T20:32:15.185Z,1.40
2019-06-07T20:34:44.890Z,1.50
2019-06-07T20:37:14.627Z,1.40
2019-06-07T20:39:44.299Z,1.40
2019-06-07T20:42:14.036Z,1.30
2019-06-07T20:44:43.269Z,1.40
2019-06-07T20:48:22.005Z,1.30
2019-06-07T20:50:52.198Z,1.30
2019-06-07T20:53:21.464Z,1.30
2019-06-07T20:55:50.678Z,1.42
2019-06-07T20:58:19.908Z,1.40
2019-06-07T21:00:49.451Z,1.30
2019-06-07T21:03:19.836Z,1.32
2019-06-07T21:05:50.612Z,1.40
2019-06-07T21:08:19.881Z,1.40
2019-06-07T21:10:49.087Z,1.27
2019-06-07T21:13:18.305Z,1.40
2019-06-07T21:15:49.253Z,1.40
2019-06-07T21:18:20.069Z,1.37
2019-06-07T21:20:49.526Z,1.30
2019-06-07T21:23:20.490Z,1.30
2019-06-07T21:25:49.671Z,1.40
2019-06-07T21:28:18.924Z,1.30
2019-06-07T21:30:48.350Z,1.35
2019-06-07T21:33:17.539Z,1.40
2019-06-07T21:35:48.075Z,1.40
2019-06-07T21:38:17.284Z,1.27
2019-06-07T21:40:46.512Z,1.50
2019-06-07T21:43:15.847Z,1.52
2019-06-07T21:45:45.046Z,1.40
2019-06-07T21:48:14.567Z,1.40
2019-06-07T21:50:43.890Z,1.40
2019-06-07T21:53:13.131Z,1.47
2019-06-07T21:55:42.278Z,1.25
2019-06-07T21:58:11.485Z,1.40
2019-06-07T22:01:17.411Z,1.40
2019-06-07T22:03:46.619Z,1.30
2019-06-07T22:06:16.012Z,1.40
2019-06-07T22:08:45.351Z,1.40
2019-06-07T22:11:14.521Z,1.32
2019-06-07T22:13:43.723Z,1.40
2019-06-07T22:16:26.791Z,1.35
2019-06-07T22:18:43.999Z,1.30
2019-06-07T22:21:13.151Z,1.50
2019-06-07T22:23:43.737Z,1.40
2019-06-07T22:26:13.349Z,1.75
2019-06-07T22:28:42.598Z,1.50
2019-06-07T22:31:12.830Z,1.50
2019-06-07T22:33:42.069Z,1.40
2019-06-07T22:36:11.258Z,1.57
2019-06-07T22:38:40.441Z,1.50
2019-06-07T22:41:09.655Z,1.30
2019-06-07T22:43:38.824Z,1.25
2019-06-07T22:46:08.711Z,1.45
2019-06-07T22:48:37.971Z,1.40
2019-06-07T22:51:10.512Z,1.45
2019-06-07T22:53:42.583Z,1.43
2019-06-07T22:56:37.422Z,1.40
2019-06-07T22:59:07.956Z,1.32
2019-06-07T23:01:37.586Z,1.27
2019-06-07T23:04:06.978Z,1.60
2019-06-07T23:06:36.168Z,1.50
2019-06-07T23:09:06.425Z,1.40
2019-06-07T23:11:35.584Z,1.40
2019-06-07T23:14:04.777Z,1.60
2019-06-07T23:16:33.941Z,1.65
2019-06-07T23:19:03.195Z,1.60
2019-06-07T23:21:32.484Z,1.57
2019-06-07T23:24:01.673Z,1.70
2019-06-07T23:26:30.860Z,1.55
2019-06-07T23:28:59.993Z,1.80
2019-06-07T23:31:29.187Z,1.75
2019-06-07T23:33:58.345Z,1.52
2019-06-07T23:36:27.646Z,1.57
2019-06-07T23:38:56.838Z,1.60
2019-06-07T23:41:26.032Z,1.50
2019-06-07T23:43:55.185Z,1.57
2019-06-07T23:46:24.383Z,1.52
2019-06-07T23:48:53.666Z,1.60
2019-06-07T23:51:22.845Z,1.60
2019-06-07T23:53:52.010Z,1.70
2019-06-07T23:56:22.233Z,1.50
2019-06-07T23:58:51.629Z,1.70
